createdAt,value
2023-04-26T00:00:01.500Z,21.85
2023-04-26T00:01:05.142Z,20.77
2023-04-26T00:02:06.717Z,17.35
2023-04-26T00:03:08.637Z,20.00
2023-04-26T00:04:10.790Z,16.67
2023-04-26T00:05:12.669Z,23.45
2023-04-26T00:06:16.489Z,21.70
2023-04-26T00:07:18.793Z,14.80
2023-04-26T00:08:20.552Z,20.52
2023-04-26T00:09:22.558Z,17.67
2023-04-26T00:10:24.162Z,19.67
2023-04-26T00:11:25.630Z,16.25
2023-04-26T00:12:27.777Z,18.48
2023-04-26T00:13:29.427Z,14.90
2023-04-26T00:14:32.791Z,16.73
2023-04-26T00:15:36.057Z,16.25
2023-04-26T00:16:37.674Z,20.92
2023-04-26T00:17:43.120Z,20.33
2023-04-26T00:18:46.320Z,19.40
2023-04-26T00:19:48.103Z,23.83
2023-04-26T00:20:51.293Z,20.33
2023-04-26T00:21:52.924Z,14.73
2023-04-26T00:22:57.654Z,16.85
2023-04-26T00:24:00.298Z,19.75
2023-04-26T00:25:03.278Z,22.52
2023-04-26T00:26:05.091Z,20.17
2023-04-26T00:27:10.160Z,20.88
2023-04-26T00:28:11.783Z,31.50
2023-04-26T00:29:13.279Z,29.10
2023-04-26T00:30:15.196Z,19.58
2023-04-26T00:31:17.706Z,26.02
2023-04-26T00:32:19.592Z,18.08
2023-04-26T00:33:21.182Z,17.70
2023-04-26T00:34:24.028Z,19.92
2023-04-26T00:35:25.587Z,15.80
2023-04-26T00:36:28.224Z,24.33
2023-04-26T00:37:30.231Z,16.33
2023-04-26T00:38:32.091Z,17.35
2023-04-26T00:39:34.063Z,14.70
2023-04-26T00:40:35.641Z,14.05
2023-04-26T00:41:37.181Z,21.98
2023-04-26T00:42:39.521Z,16.38
2023-04-26T00:43:42.068Z,12.52
2023-04-26T00:44:43.725Z,18.15
2023-04-26T00:45:45.875Z,15.57
2023-04-26T00:46:48.885Z,14.75
2023-04-26T00:47:50.793Z,18.17
2023-04-26T00:48:52.792Z,21.50
2023-04-26T00:49:57.626Z,24.10
2023-04-26T00:50:59.493Z,21.27
2023-04-26T00:52:01.913Z,20.90
2023-04-26T00:53:04.080Z,23.98
2023-04-26T00:54:07.702Z,30.67
2023-04-26T00:55:09.581Z,30.42
2023-04-26T00:56:13.080Z,19.88
2023-04-26T00:57:15.028Z,18.40
2023-04-26T00:58:18.550Z,25.02
2023-04-26T00:59:20.913Z,25.45
2023-04-26T01:00:23.022Z,23.92
2023-04-26T01:01:24.761Z,20.17
2023-04-26T01:02:27.195Z,24.05
2023-04-26T01:03:29.997Z,21.10
2023-04-26T01:04:32.309Z,24.25
2023-04-26T01:05:34.844Z,23.92
2023-04-26T01:06:38.511Z,20.17
2023-04-26T01:07:41.270Z,28.83
2023-04-26T01:08:43.118Z,24.85
2023-04-26T01:09:44.914Z,23.02
2023-04-26T01:10:49.649Z,21.38
2023-04-26T01:11:52.563Z,43.15
2023-04-26T01:12:54.546Z,19.98
2023-04-26T01:13:56.636Z,22.17
2023-04-26T01:14:59.792Z,15.50
2023-04-26T01:16:02.130Z,16.15
2023-04-26T01:17:04.204Z,15.35
2023-04-26T01:18:06.091Z,22.48
2023-04-26T01:19:14.872Z,26.52
2023-04-26T01:20:16.494Z,24.48
2023-04-26T01:21:25.129Z,17.90
2023-04-26T01:22:26.766Z,18.45
2023-04-26T01:23:28.538Z,17.10
2023-04-26T01:24:30.467Z,20.75
2023-04-26T01:25:32.486Z,29.25
2023-04-26T01:26:36.677Z,16.98
2023-04-26T01:27:38.600Z,24.77
2023-04-26T01:28:40.156Z,21.67
2023-04-26T01:29:42.490Z,23.98
2023-04-26T01:30:44.826Z,24.08
2023-04-26T01:31:47.931Z,27.75
2023-04-26T01:32:50.567Z,19.65
2023-04-26T01:33:52.374Z,24.33
2023-04-26T01:34:54.187Z,23.70
2023-04-26T01:35:57.038Z,40.05
2023-04-26T01:37:00.158Z,22.92
2023-04-26T01:38:02.244Z,26.10
2023-04-26T01:39:04.545Z,27.42
2023-04-26T01:40:07.474Z,18.35
2023-04-26T01:41:09.160Z,21.35
2023-04-26T01:42:10.935Z,25.80
2023-04-26T01:43:13.294Z,21.15
2023-04-26T01:44:16.171Z,28.58
2023-04-26T01:45:17.830Z,28.92
2023-04-26T01:46:19.387Z,29.38
2023-04-26T01:47:21.458Z,31.75
2023-04-26T01:48:23.672Z,34.75
2023-04-26T01:49:27.660Z,24.98
2023-04-26T01:50:29.472Z,19.38
2023-04-26T01:51:32.087Z,21.40
2023-04-26T01:52:33.980Z,21.98
2023-04-26T01:53:35.793Z,21.33
2023-04-26T01:54:37.730Z,25.35
2023-04-26T01:55:39.609Z,26.85
2023-04-26T01:56:41.874Z,19.77
2023-04-26T01:57:44.726Z,23.48
2023-04-26T01:58:46.653Z,22.67
2023-04-26T01:59:48.390Z,25.35
2023-04-26T02:00:49.945Z,34.88
2023-04-26T02:01:53.523Z,39.60
2023-04-26T02:02:57.406Z,33.13
2023-04-26T02:04:00.809Z,39.45
2023-04-26T02:05:02.270Z,37.33
2023-04-26T02:06:04.134Z,37.85
2023-04-26T02:07:06.804Z,34.03
2023-04-26T02:08:08.329Z,33.45
2023-04-26T02:09:10.369Z,33.63
2023-04-26T02:10:12.254Z,36.97
2023-04-26T02:11:14.384Z,28.88
2023-04-26T02:12:16.109Z,40.15
2023-04-26T02:13:19.644Z,30.67
2023-04-26T02:14:21.448Z,30.38
2023-04-26T02:15:23.064Z,33.13
2023-04-26T02:16:25.041Z,24.60
2023-04-26T02:17:27.120Z,27.95
2023-04-26T02:18:29.938Z,26.52
2023-04-26T02:19:31.915Z,27.67
2023-04-26T02:20:33.689Z,30.83
2023-04-26T02:21:50.676Z,35.78
2023-04-26T02:22:52.567Z,24.15
2023-04-26T02:23:54.908Z,27.52
2023-04-26T02:24:56.625Z,39.05
2023-04-26T02:25:58.563Z,40.35
2023-04-26T02:27:05.128Z,37.30
2023-04-26T02:28:06.841Z,44.33
2023-04-26T02:29:08.497Z,40.38
2023-04-26T02:30:10.426Z,33.78
2023-04-26T02:31:12.034Z,35.15
2023-04-26T02:32:13.940Z,32.55
2023-04-26T02:33:16.200Z,39.05
2023-04-26T02:34:17.668Z,37.85
2023-04-26T02:35:20.309Z,37.72
2023-04-26T02:36:21.843Z,31.15
2023-04-26T02:37:23.446Z,27.55
2023-04-26T02:38:28.485Z,28.70
2023-04-26T02:39:31.818Z,32.38
2023-04-26T02:40:34.449Z,27.65
2023-04-26T02:41:36.400Z,28.17
2023-04-26T02:42:38.289Z,32.28
2023-04-26T02:43:39.787Z,26.30
2023-04-26T02:44:42.950Z,34.58
2023-04-26T02:45:44.494Z,31.63
2023-04-26T02:46:48.161Z,36.55
2023-04-26T02:47:49.872Z,32.08
2023-04-26T02:48:51.978Z,34.33
2023-04-26T02:49:53.832Z,31.58
2023-04-26T02:50:55.381Z,28.67
2023-04-26T02:51:57.034Z,35.00
2023-04-26T02:52:59.759Z,42.13
2023-04-26T02:54:04.186Z,26.17
2023-04-26T02:55:07.107Z,32.40
2023-04-26T02:56:12.352Z,37.92
2023-04-26T02:57:13.884Z,27.77
2023-04-26T02:58:17.391Z,25.85
2023-04-26T02:59:18.976Z,26.83
2023-04-26T03:00:20.766Z,27.05
2023-04-26T03:01:22.668Z,20.15
2023-04-26T03:02:25.321Z,28.92
2023-04-26T03:03:27.183Z,24.45
2023-04-26T03:04:30.988Z,30.40
2023-04-26T03:05:33.021Z,28.17
2023-04-26T03:06:34.929Z,31.27
2023-04-26T03:07:37.121Z,24.55
2023-04-26T03:08:38.615Z,31.35
2023-04-26T03:09:40.398Z,32.70
2023-04-26T03:10:42.378Z,26.67
2023-04-26T03:11:44.508Z,38.17
2023-04-26T03:12:46.022Z,30.23
2023-04-26T03:13:47.804Z,21.88
2023-04-26T03:14:50.711Z,28.58
2023-04-26T03:15:53.860Z,31.52
2023-04-26T03:16:55.716Z,28.42
2023-04-26T03:17:58.684Z,39.47
2023-04-26T03:19:03.700Z,31.58
2023-04-26T03:20:08.951Z,29.70
2023-04-26T03:21:10.776Z,29.60
2023-04-26T03:22:16.227Z,34.88
2023-04-26T03:23:19.752Z,39.70
2023-04-26T03:24:21.730Z,32.38
2023-04-26T03:25:25.500Z,28.48
2023-04-26T03:26:27.149Z,35.80
2023-04-26T03:27:28.958Z,38.50
2023-04-26T03:28:31.826Z,40.35
2023-04-26T03:29:34.039Z,41.63
2023-04-26T03:30:35.937Z,34.03
2023-04-26T03:31:37.395Z,37.47
2023-04-26T03:32:39.345Z,31.92
2023-04-26T03:33:41.025Z,36.13
2023-04-26T03:34:42.832Z,39.72
2023-04-26T03:35:48.276Z,35.03
2023-04-26T03:36:50.211Z,34.55
2023-04-26T03:37:53.492Z,33.67
2023-04-26T03:38:55.654Z,29.67
2023-04-26T03:39:58.261Z,31.58
2023-04-26T03:41:00.085Z,36.33
2023-04-26T03:42:04.150Z,34.75
2023-04-26T03:43:05.970Z,27.30
2023-04-26T03:44:07.802Z,36.83
2023-04-26T03:45:10.698Z,33.60
2023-04-26T03:46:13.395Z,30.80
2023-04-26T03:47:17.654Z,46.65
2023-04-26T03:48:19.377Z,39.92
2023-04-26T03:49:21.184Z,37.13
2023-04-26T03:50:22.653Z,39.25
2023-04-26T03:51:24.532Z,40.65
2023-04-26T03:52:25.996Z,40.22
2023-04-26T03:53:27.674Z,34.58
2023-04-26T03:54:35.342Z,39.80
2023-04-26T03:55:37.269Z,41.17
2023-04-26T03:56:40.317Z,37.47
2023-04-26T03:57:42.674Z,34.40
2023-04-26T03:58:46.879Z,32.50
2023-04-26T03:59:48.640Z,32.28
2023-04-26T04:00:50.668Z,40.45
2023-04-26T04:01:52.402Z,36.00
2023-04-26T04:02:54.420Z,36.30
2023-04-26T04:03:56.939Z,34.33
2023-04-26T04:04:58.906Z,41.80
2023-04-26T04:06:01.258Z,31.67
2023-04-26T04:07:03.414Z,31.60
2023-04-26T04:08:04.950Z,35.70
2023-04-26T04:09:06.817Z,34.63
2023-04-26T04:10:10.661Z,31.10
2023-04-26T04:11:12.422Z,28.63
2023-04-26T04:12:14.001Z,39.95
2023-04-26T04:13:15.552Z,30.45
2023-04-26T04:14:17.341Z,48.67
2023-04-26T04:15:19.857Z,32.75
2023-04-26T04:16:21.960Z,30.60
2023-04-26T04:17:26.714Z,31.35
2023-04-26T04:18:28.295Z,34.10
2023-04-26T04:19:29.831Z,38.80
2023-04-26T04:20:31.681Z,36.25
2023-04-26T04:21:33.262Z,36.90
2023-04-26T04:22:35.330Z,33.25
2023-04-26T04:23:36.857Z,32.25
2023-04-26T04:24:38.641Z,48.38
2023-04-26T04:25:40.380Z,29.67
2023-04-26T04:26:43.835Z,31.88
2023-04-26T04:27:45.471Z,35.42
2023-04-26T04:28:47.449Z,33.08
2023-04-26T04:29:49.247Z,42.67
2023-04-26T04:30:51.524Z,32.17
2023-04-26T04:31:53.397Z,46.72
2023-04-26T04:32:59.457Z,43.78
2023-04-26T04:34:03.352Z,44.42
2023-04-26T04:35:05.909Z,37.08
2023-04-26T04:36:08.346Z,36.90
2023-04-26T04:37:10.047Z,39.55
2023-04-26T04:38:11.696Z,40.38
2023-04-26T04:39:16.232Z,39.08
2023-04-26T04:40:20.737Z,36.90
2023-04-26T04:41:22.468Z,43.65
2023-04-26T04:42:24.364Z,38.15
2023-04-26T04:43:26.119Z,48.30
2023-04-26T04:44:28.153Z,33.05
2023-04-26T04:45:29.683Z,29.08
2023-04-26T04:46:32.207Z,31.90
2023-04-26T04:47:34.347Z,43.15
2023-04-26T04:48:38.823Z,36.30
2023-04-26T04:49:42.146Z,35.35
2023-04-26T04:50:44.431Z,39.10
2023-04-26T04:51:46.161Z,40.55
2023-04-26T04:52:48.411Z,32.50
2023-04-26T04:53:51.504Z,30.65
2023-04-26T04:54:53.421Z,33.85
2023-04-26T04:55:55.219Z,38.13
2023-04-26T04:56:57.556Z,34.67
2023-04-26T04:57:59.401Z,57.28
2023-04-26T04:59:02.211Z,34.83
2023-04-26T05:00:10.565Z,37.25
2023-04-26T05:01:12.525Z,34.63
2023-04-26T05:02:14.488Z,32.05
2023-04-26T05:03:16.384Z,36.30
2023-04-26T05:04:20.081Z,41.63
2023-04-26T05:05:22.055Z,40.42
2023-04-26T05:06:24.699Z,41.25
2023-04-26T05:07:27.374Z,47.50
2023-04-26T05:08:32.157Z,34.47
2023-04-26T05:09:33.872Z,36.95
2023-04-26T05:10:36.050Z,39.50
2023-04-26T05:11:37.920Z,33.10
2023-04-26T05:12:39.699Z,32.47
2023-04-26T05:13:41.293Z,36.90
2023-04-26T05:14:42.958Z,40.03
2023-04-26T05:15:44.668Z,45.80
2023-04-26T05:16:46.703Z,37.05
2023-04-26T05:17:48.673Z,42.22
2023-04-26T05:18:50.341Z,47.42
2023-04-26T05:19:51.856Z,41.63
2023-04-26T05:20:53.370Z,32.72
2023-04-26T05:21:56.490Z,31.05
2023-04-26T05:23:02.663Z,33.95
2023-04-26T05:24:04.419Z,38.00
2023-04-26T05:25:06.552Z,39.92
2023-04-26T05:26:08.537Z,41.40
2023-04-26T05:27:10.435Z,42.42
2023-04-26T05:28:14.168Z,33.40
2023-04-26T05:29:16.742Z,47.53
2023-04-26T05:30:18.596Z,45.13
2023-04-26T05:31:20.474Z,37.22
2023-04-26T05:32:21.998Z,45.33
2023-04-26T05:33:23.521Z,38.97
2023-04-26T05:34:26.603Z,44.53
2023-04-26T05:35:28.438Z,38.65
2023-04-26T05:36:32.893Z,55.80
2023-04-26T05:37:34.788Z,33.85
2023-04-26T05:38:38.340Z,33.28
2023-04-26T05:39:39.846Z,21.88
2023-04-26T05:40:41.669Z,35.72
2023-04-26T05:41:43.434Z,30.25
2023-04-26T05:42:46.319Z,26.88
2023-04-26T05:43:48.712Z,32.58
2023-04-26T05:44:50.751Z,33.03
2023-04-26T05:45:55.836Z,33.80
2023-04-26T05:46:57.681Z,31.92
2023-04-26T05:47:59.226Z,44.72
2023-04-26T05:49:01.437Z,39.95
2023-04-26T05:50:03.620Z,33.70
2023-04-26T05:51:05.604Z,28.55
2023-04-26T05:52:07.080Z,34.90
2023-04-26T05:53:08.892Z,27.33
2023-04-26T05:54:10.358Z,35.45
2023-04-26T05:55:13.378Z,19.67
2023-04-26T05:56:15.875Z,25.65
2023-04-26T05:57:18.642Z,31.40
2023-04-26T05:58:20.414Z,28.30
2023-04-26T05:59:22.104Z,29.63
2023-04-26T06:00:23.850Z,26.92
2023-04-26T06:01:25.887Z,21.77
2023-04-26T06:02:27.731Z,27.25
2023-04-26T06:03:29.800Z,26.38
2023-04-26T06:04:32.012Z,23.52
2023-04-26T06:05:34.205Z,24.40
2023-04-26T06:06:36.184Z,21.38
2023-04-26T06:07:38.199Z,19.13
2023-04-26T06:08:39.789Z,28.25
2023-04-26T06:09:41.436Z,25.35
2023-04-26T06:10:43.108Z,21.00
2023-04-26T06:11:44.992Z,22.95
2023-04-26T06:12:46.942Z,28.67
2023-04-26T06:13:48.466Z,19.05
2023-04-26T06:14:50.331Z,21.92
2023-04-26T06:15:53.208Z,30.05
2023-04-26T06:16:54.795Z,25.73
2023-04-26T06:17:56.749Z,26.00
2023-04-26T06:18:58.555Z,23.70
2023-04-26T06:20:00.518Z,22.48
2023-04-26T06:21:02.581Z,18.77
2023-04-26T06:22:04.682Z,21.80
2023-04-26T06:23:06.351Z,25.30
2023-04-26T06:24:08.423Z,15.73
2023-04-26T06:25:10.444Z,17.17
2023-04-26T06:26:14.319Z,17.02
2023-04-26T06:27:16.154Z,20.25
2023-04-26T06:28:17.802Z,16.67
2023-04-26T06:29:20.477Z,14.77
2023-04-26T06:30:22.000Z,14.35
2023-04-26T06:31:24.654Z,12.00
2023-04-26T06:32:26.689Z,11.25
2023-04-26T06:33:28.485Z,16.15
2023-04-26T06:34:30.605Z,9.77
2023-04-26T06:35:32.137Z,10.82
2023-04-26T06:36:33.804Z,11.88
2023-04-26T06:37:37.276Z,16.90
2023-04-26T06:38:39.713Z,13.80
2023-04-26T06:39:41.557Z,14.75
2023-04-26T06:40:44.444Z,11.75
2023-04-26T06:41:45.921Z,18.88
2023-04-26T06:42:47.981Z,11.57
2023-04-26T06:43:51.178Z,12.52
2023-04-26T06:44:53.100Z,14.67
2023-04-26T06:45:54.676Z,20.48
2023-04-26T06:46:57.091Z,11.00
2023-04-26T06:48:01.211Z,18.43
2023-04-26T06:49:03.257Z,11.40
2023-04-26T06:50:05.486Z,12.33
2023-04-26T06:51:08.162Z,8.93
2023-04-26T06:52:10.156Z,9.80
2023-04-26T06:53:12.165Z,8.03
2023-04-26T06:54:14.081Z,7.77
2023-04-26T06:55:15.696Z,9.50
2023-04-26T06:56:17.585Z,11.33
2023-04-26T06:57:19.094Z,10.10
2023-04-26T06:58:21.558Z,8.40
2023-04-26T06:59:23.466Z,8.30
2023-04-26T07:00:25.979Z,7.63
2023-04-26T07:01:34.660Z,9.50
2023-04-26T07:02:37.192Z,5.30
2023-04-26T07:03:43.218Z,4.57
2023-04-26T07:04:45.176Z,7.07
2023-04-26T07:05:47.675Z,7.60
2023-04-26T07:06:49.935Z,4.93
2023-04-26T07:07:51.828Z,11.87
2023-04-26T07:08:54.112Z,11.37
2023-04-26T07:09:56.756Z,8.33
2023-04-26T07:10:58.710Z,5.30
2023-04-26T07:12:00.644Z,7.47
2023-04-26T07:13:02.820Z,6.30
2023-04-26T07:14:07.513Z,12.30
2023-04-26T07:15:09.293Z,10.07
2023-04-26T07:16:11.267Z,10.33
2023-04-26T07:17:12.847Z,12.03
2023-04-26T07:18:14.809Z,8.50
2023-04-26T07:19:16.825Z,7.03
2023-04-26T07:20:21.182Z,6.17
2023-04-26T07:21:23.293Z,8.60
2023-04-26T07:22:24.895Z,6.27
2023-04-26T07:23:26.663Z,8.00
2023-04-26T07:24:28.832Z,7.90
2023-04-26T07:25:33.619Z,4.90
2023-04-26T07:26:39.521Z,9.13
2023-04-26T07:27:41.454Z,10.30
2023-04-26T07:28:43.747Z,10.63
2023-04-26T07:29:46.086Z,15.30
2023-04-26T07:30:47.820Z,8.20
2023-04-26T07:31:50.078Z,7.67
2023-04-26T07:32:53.249Z,6.63
2023-04-26T07:33:55.700Z,6.20
2023-04-26T07:34:57.731Z,9.80
2023-04-26T07:35:59.866Z,6.10
2023-04-26T07:37:01.793Z,12.07
2023-04-26T07:38:03.961Z,6.40
2023-04-26T07:39:06.637Z,7.40
2023-04-26T07:40:10.477Z,8.60
2023-04-26T07:41:13.367Z,8.37
2023-04-26T07:42:15.203Z,11.27
2023-04-26T07:43:17.576Z,8.43
2023-04-26T07:44:19.199Z,9.50
2023-04-26T07:45:21.274Z,7.30
2023-04-26T07:46:23.334Z,7.57
2023-04-26T07:47:26.204Z,5.07
2023-04-26T07:48:27.822Z,8.10
2023-04-26T07:49:29.852Z,8.63
2023-04-26T07:50:32.094Z,8.53
2023-04-26T07:51:37.106Z,10.13
2023-04-26T07:52:39.167Z,7.27
2023-04-26T07:53:41.757Z,8.03
2023-04-26T07:54:45.887Z,6.73
2023-04-26T07:55:47.767Z,6.90
2023-04-26T07:56:49.658Z,10.43
2023-04-26T07:57:52.327Z,8.10
2023-04-26T07:58:53.918Z,9.00
2023-04-26T07:59:55.796Z,7.00
2023-04-26T08:00:57.445Z,8.97
2023-04-26T08:01:59.167Z,9.07
2023-04-26T08:03:01.320Z,6.90
2023-04-26T08:04:05.325Z,10.50
2023-04-26T08:05:08.194Z,7.53
2023-04-26T08:06:10.705Z,10.00
2023-04-26T08:07:13.011Z,13.33
2023-04-26T08:08:15.099Z,6.80
2023-04-26T08:09:17.668Z,8.47
2023-04-26T08:10:19.162Z,7.97
2023-04-26T08:11:20.756Z,10.33
2023-04-26T08:12:22.639Z,7.93
2023-04-26T08:13:25.181Z,7.53
2023-04-26T08:14:30.287Z,5.47
2023-04-26T08:15:33.327Z,14.00
2023-04-26T08:16:34.924Z,5.17
2023-04-26T08:17:36.637Z,7.83
2023-04-26T08:18:38.435Z,11.53
2023-04-26T08:19:40.488Z,12.20
2023-04-26T08:20:43.943Z,7.57
2023-04-26T08:21:45.465Z,9.73
2023-04-26T08:22:47.442Z,6.97
2023-04-26T08:23:49.081Z,14.37
2023-04-26T08:24:51.105Z,4.70
2023-04-26T08:25:53.036Z,3.63
2023-04-26T08:26:55.365Z,10.10
2023-04-26T08:27:57.188Z,5.93
2023-04-26T08:28:58.684Z,4.10
2023-04-26T08:30:00.463Z,9.20
2023-04-26T08:31:02.198Z,4.73
2023-04-26T08:32:03.984Z,5.33
2023-04-26T08:33:06.160Z,9.87
2023-04-26T08:34:11.766Z,14.73
2023-04-26T08:35:13.769Z,6.97
2023-04-26T08:36:16.213Z,13.43
2023-04-26T08:37:18.274Z,10.17
2023-04-26T08:38:22.479Z,6.77
2023-04-26T08:39:24.518Z,9.60
2023-04-26T08:40:26.264Z,5.93
2023-04-26T08:41:28.123Z,5.93
2023-04-26T08:42:30.497Z,3.80
2023-04-26T08:43:33.935Z,4.20
2023-04-26T08:51:36.868Z,9.10
2023-04-26T08:52:41.140Z,9.70
2023-04-26T08:53:44.114Z,6.30
2023-04-26T08:54:46.944Z,9.53
2023-04-26T08:55:50.895Z,6.60
2023-04-26T08:57:04.125Z,6.90
2023-04-26T08:58:08.407Z,8.13
2023-04-26T08:59:10.852Z,8.10
2023-04-26T09:00:13.649Z,10.73
2023-04-26T09:01:16.162Z,6.83
2023-04-26T09:02:19.169Z,8.17
2023-04-26T09:03:23.350Z,6.60
2023-04-26T09:04:25.088Z,10.50
2023-04-26T09:05:27.336Z,8.10
2023-04-26T09:06:29.415Z,13.80
2023-04-26T09:07:34.096Z,5.07
2023-04-26T09:08:36.751Z,10.07
2023-04-26T09:09:41.844Z,16.33
2023-04-26T09:10:43.712Z,4.97
2023-04-26T09:12:03.818Z,9.93
2023-04-26T09:13:06.512Z,9.87
2023-04-26T09:14:09.741Z,8.10
2023-04-26T09:15:11.517Z,7.03
2023-04-26T09:16:13.378Z,10.13
2023-04-26T09:17:33.233Z,6.63
2023-04-26T09:18:35.117Z,12.03
2023-04-26T09:19:43.099Z,10.43
2023-04-26T09:20:45.868Z,6.80
2023-04-26T09:21:47.631Z,7.97
2023-04-26T09:22:54.634Z,5.80
2023-04-26T09:24:00.450Z,7.50
2023-04-26T09:25:03.790Z,12.03
2023-04-26T09:26:22.317Z,9.83
2023-04-26T09:27:32.066Z,9.03
2023-04-26T09:28:33.716Z,4.00
2023-04-26T09:29:35.164Z,6.90
2023-04-26T09:30:40.032Z,12.77
2023-04-26T09:33:06.681Z,4.07
2023-04-26T09:34:10.097Z,6.53
2023-04-26T09:35:29.845Z,8.10
2023-04-26T09:36:32.126Z,8.70
2023-04-26T09:37:34.553Z,5.87
2023-04-26T09:38:42.129Z,6.83
2023-04-26T09:39:44.083Z,2.23
2023-04-26T09:40:47.038Z,7.63
2023-04-26T09:41:49.642Z,7.60
2023-04-26T09:43:07.651Z,5.37
2023-04-26T09:44:20.894Z,6.40
2023-04-26T09:45:22.766Z,10.40
2023-04-26T09:46:25.250Z,8.17
2023-04-26T09:47:28.061Z,10.07
2023-04-26T09:48:31.749Z,4.13
2023-04-26T09:49:34.234Z,14.93
2023-04-26T09:50:36.118Z,9.23
2023-04-26T09:51:37.686Z,4.00
2023-04-26T09:52:48.423Z,10.80
2023-04-26T09:53:51.511Z,5.50
2023-04-26T09:54:53.960Z,4.90
2023-04-26T09:55:57.754Z,10.30
2023-04-26T09:56:59.965Z,4.27
2023-04-26T09:58:08.176Z,3.90
2023-04-26T09:59:11.662Z,5.93
2023-04-26T10:00:15.757Z,7.70
2023-04-26T10:01:20.435Z,6.47
2023-04-26T10:02:26.957Z,4.70
2023-04-26T10:03:32.076Z,11.13
2023-04-26T10:04:34.248Z,9.60
2023-04-26T10:05:38.125Z,8.07
2023-04-26T10:06:39.742Z,6.37
2023-04-26T10:07:41.625Z,4.03
2023-04-26T10:08:44.109Z,6.00
2023-04-26T10:09:47.730Z,6.30
2023-04-26T10:10:49.442Z,8.17
2023-04-26T10:11:51.172Z,5.90
2023-04-26T10:12:53.547Z,4.77
2023-04-26T10:13:55.766Z,8.53
2023-04-26T10:14:57.943Z,4.97
2023-04-26T10:16:05.031Z,3.80
2023-04-26T10:17:08.003Z,6.77
2023-04-26T10:18:11.271Z,6.80
2023-04-26T10:19:15.539Z,6.13
2023-04-26T10:20:19.138Z,5.47
2023-04-26T10:21:25.654Z,6.60
2023-04-26T10:22:28.999Z,7.83
2023-04-26T10:23:31.542Z,4.20
2023-04-26T10:24:36.861Z,8.37
2023-04-26T10:25:39.187Z,5.33
2023-04-26T10:26:47.908Z,4.40
2023-04-26T10:27:50.973Z,2.83
2023-04-26T10:28:56.642Z,6.53
2023-04-26T10:30:04.862Z,4.77
2023-04-26T10:31:08.243Z,4.53
2023-04-26T10:32:12.639Z,8.87
2023-04-26T10:33:14.646Z,3.80
2023-04-26T10:34:22.654Z,4.00
2023-04-26T10:35:25.299Z,9.57
2023-04-26T10:36:30.020Z,3.63
2023-04-26T10:37:31.518Z,6.87
2023-04-26T10:38:33.324Z,8.53
2023-04-26T10:39:35.400Z,10.83
2023-04-26T10:40:38.746Z,4.13
2023-04-26T10:41:41.696Z,3.87
2023-04-26T10:42:43.714Z,7.43
2023-04-26T10:43:46.078Z,9.17
2023-04-26T10:44:50.074Z,3.07
2023-04-26T10:45:54.416Z,3.73
2023-04-26T10:46:56.060Z,3.53
2023-04-26T10:48:19.988Z,6.17
2023-04-26T10:49:26.550Z,5.37
2023-04-26T10:50:28.570Z,2.70
2023-04-26T10:51:32.038Z,9.67
2023-04-26T10:52:34.378Z,3.13
2023-04-26T10:53:38.980Z,5.80
2023-04-26T10:54:54.357Z,6.50
2023-04-26T10:55:57.854Z,10.93
2023-04-26T10:57:00.549Z,7.23
2023-04-26T10:58:23.246Z,3.57
2023-04-26T10:59:39.704Z,12.10
2023-04-26T11:01:06.690Z,2.63
2023-04-26T11:02:11.703Z,3.33
2023-04-26T11:03:15.406Z,4.53
2023-04-26T11:04:17.635Z,6.70
2023-04-26T11:05:38.362Z,5.53
2023-04-26T11:06:50.962Z,2.23
2023-04-26T11:08:03.866Z,4.40
2023-04-26T11:09:26.288Z,8.43
2023-04-26T11:10:28.018Z,7.50
2023-04-26T11:11:32.871Z,7.07
2023-04-26T11:12:34.570Z,3.40
2023-04-26T11:13:37.664Z,9.03
2023-04-26T11:14:39.877Z,3.80
2023-04-26T11:15:43.194Z,5.27
2023-04-26T11:16:46.158Z,5.77
2023-04-26T11:17:48.516Z,3.87
2023-04-26T11:18:57.951Z,9.90
2023-04-26T11:20:06.426Z,4.67
2023-04-26T11:21:08.877Z,5.60
2023-04-26T11:22:11.035Z,10.43
2023-04-26T11:23:16.330Z,5.73
2023-04-26T11:24:24.797Z,4.83
2023-04-26T11:25:29.449Z,7.87
2023-04-26T11:26:38.034Z,5.30
2023-04-26T11:27:40.165Z,7.53
2023-04-26T11:28:44.726Z,4.73
2023-04-26T11:29:46.598Z,2.37
2023-04-26T11:30:49.420Z,5.90
2023-04-26T11:31:58.096Z,9.50
2023-04-26T11:33:00.959Z,6.77
2023-04-26T11:34:08.291Z,3.83
2023-04-26T11:35:10.553Z,3.67
2023-04-26T11:36:14.599Z,4.00
2023-04-26T11:37:16.545Z,11.00
2023-04-26T11:38:18.983Z,4.30
2023-04-26T11:39:21.187Z,4.77
2023-04-26T11:40:23.164Z,3.90
2023-04-26T11:41:25.590Z,7.47
2023-04-26T11:42:28.450Z,5.27
2023-04-26T11:43:38.199Z,3.60
2023-04-26T11:44:41.277Z,2.70
2023-04-26T11:45:43.051Z,3.97
2023-04-26T11:46:44.727Z,7.23
2023-04-26T11:47:48.003Z,4.60
2023-04-26T11:48:49.826Z,4.73
2023-04-26T11:49:52.398Z,3.47
2023-04-26T11:50:54.373Z,9.10
2023-04-26T11:51:56.871Z,5.00
2023-04-26T11:53:00.827Z,6.17
2023-04-26T11:54:03.439Z,2.30
2023-04-26T11:55:07.202Z,6.17
2023-04-26T11:56:18.749Z,5.33
2023-04-26T11:57:20.880Z,3.57
2023-04-26T11:58:23.670Z,5.03
2023-04-26T11:59:29.366Z,3.80
2023-04-26T12:00:31.092Z,6.30
2023-04-26T12:01:33.648Z,4.10
2023-04-26T12:02:35.933Z,4.03
2023-04-26T12:03:38.221Z,5.23
2023-04-26T12:04:42.139Z,10.43
2023-04-26T12:05:55.237Z,9.10
2023-04-26T12:06:59.648Z,4.00
2023-04-26T12:08:01.344Z,4.30
2023-04-26T12:09:06.167Z,3.97
2023-04-26T12:10:14.619Z,8.00
2023-04-26T12:11:16.755Z,7.53
2023-04-26T12:12:18.311Z,2.20
2023-04-26T12:13:20.633Z,5.53
2023-04-26T12:14:23.783Z,7.97
2023-04-26T12:15:31.389Z,3.40
2023-04-26T12:16:36.400Z,2.83
2023-04-26T12:17:38.315Z,3.03
2023-04-26T12:18:49.595Z,7.03
2023-04-26T12:19:51.797Z,5.37
2023-04-26T12:20:57.930Z,2.20
2023-04-26T12:22:00.110Z,2.90
2023-04-26T12:23:01.759Z,3.17
2023-04-26T12:24:03.583Z,4.53
2023-04-26T12:25:09.417Z,4.40
2023-04-26T12:26:12.527Z,4.97
2023-04-26T12:27:20.788Z,11.90
2023-04-26T12:28:23.345Z,3.17
2023-04-26T12:29:25.008Z,2.53
2023-04-26T12:30:28.055Z,3.60
2023-04-26T12:31:29.896Z,4.17
2023-04-26T12:32:33.279Z,7.77
2023-04-26T12:33:35.012Z,5.70
2023-04-26T12:34:37.839Z,2.90
2023-04-26T12:35:40.640Z,4.73
2023-04-26T12:36:45.528Z,3.13
2023-04-26T12:37:48.392Z,3.83
2023-04-26T12:38:50.642Z,4.60
2023-04-26T12:39:53.827Z,6.10
2023-04-26T12:40:56.833Z,5.90
2023-04-26T12:41:58.626Z,3.43
2023-04-26T12:43:01.910Z,5.30
2023-04-26T12:44:04.096Z,6.43
2023-04-26T12:45:06.370Z,5.70
2023-04-26T12:46:08.384Z,5.83
2023-04-26T12:47:12.556Z,4.97
2023-04-26T12:48:14.652Z,3.10
2023-04-26T12:49:16.558Z,3.03
2023-04-26T12:50:18.836Z,2.97
2023-04-26T12:51:21.112Z,4.80
2023-04-26T12:52:22.709Z,5.70
2023-04-26T12:53:24.430Z,4.20
2023-04-26T12:54:26.253Z,3.80
2023-04-26T12:55:28.989Z,2.77
2023-04-26T12:56:32.746Z,4.30
2023-04-26T12:57:34.918Z,4.07
2023-04-26T12:58:38.407Z,3.13
2023-04-26T12:59:40.605Z,6.90
2023-04-26T13:00:44.595Z,3.23
2023-04-26T13:01:46.448Z,5.57
2023-04-26T13:02:48.277Z,12.10
2023-04-26T13:03:50.764Z,10.43
2023-04-26T13:04:52.973Z,5.33
2023-04-26T13:05:54.888Z,9.10
2023-04-26T13:06:56.837Z,5.87
2023-04-26T13:08:00.636Z,3.90
2023-04-26T13:09:02.756Z,2.83
2023-04-26T13:10:05.573Z,4.10
2023-04-26T13:11:07.909Z,3.07
2023-04-26T13:12:11.396Z,12.03
2023-04-26T13:13:14.578Z,5.97
2023-04-26T13:14:16.427Z,5.07
2023-04-26T13:15:18.165Z,2.63
2023-04-26T13:16:20.099Z,5.90
2023-04-26T13:17:23.572Z,5.10
2023-04-26T13:18:25.457Z,5.10
2023-04-26T13:19:27.503Z,5.97
2023-04-26T13:20:30.963Z,3.30
2023-04-26T13:21:34.091Z,2.70
2023-04-26T13:22:35.680Z,2.27
2023-04-26T13:23:37.690Z,5.27
2023-04-26T13:24:39.779Z,4.10
2023-04-26T13:25:42.025Z,3.67
2023-04-26T13:26:44.180Z,2.50
2023-04-26T13:27:46.637Z,3.13
2023-04-26T13:28:48.810Z,1.97
2023-04-26T13:29:52.078Z,2.50
2023-04-26T13:30:54.219Z,4.40
2023-04-26T13:31:56.471Z,6.00
2023-04-26T13:33:00.338Z,4.00
2023-04-26T13:34:03.594Z,7.70
2023-04-26T13:35:05.746Z,2.27
2023-04-26T13:36:07.992Z,4.83
2023-04-26T13:37:10.757Z,5.20
2023-04-26T13:38:15.464Z,2.20
2023-04-26T13:39:17.498Z,2.90
2023-04-26T13:40:19.891Z,9.20
2023-04-26T13:41:22.830Z,3.60
2023-04-26T13:42:24.650Z,2.70
2023-04-26T13:43:26.793Z,4.37
2023-04-26T13:44:29.045Z,4.57
2023-04-26T13:45:30.761Z,4.00
2023-04-26T13:46:32.331Z,7.53
2023-04-26T13:47:34.252Z,2.77
2023-04-26T13:48:36.130Z,3.10
2023-04-26T13:49:39.340Z,5.30
2023-04-26T13:50:40.914Z,7.67
2023-04-26T13:51:42.974Z,3.00